sensor_id;sensor_type;location;lat;lon;timestamp;temperature;humidity
28959;DHT22;16066;0.000;0.000;2022-07-17T00:01:33;21.60;42.50
28959;DHT22;16066;0.000;0.000;2022-07-17T00:03:59;21.60;42.40
28959;DHT22;16066;0.000;0.000;2022-07-17T00:06:24;21.60;42.40
28959;DHT22;16066;0.000;0.000;2022-07-17T00:08:50;21.60;42.40
28959;DHT22;16066;0.000;0.000;2022-07-17T00:11:15;21.60;42.50
28959;DHT22;16066;0.000;0.000;2022-07-17T00:13:41;21.60;42.60
28959;DHT22;16066;0.000;0.000;2022-07-17T00:16:07;21.50;42.60
28959;DHT22;16066;0.000;0.000;2022-07-17T00:18:32;21.50;42.70
28959;DHT22;16066;0.000;0.000;2022-07-17T00:20:58;21.50;42.90
28959;DHT22;16066;0.000;0.000;2022-07-17T00:23:23;21.50;43.00
28959;DHT22;16066;0.000;0.000;2022-07-17T00:25:49;21.40;42.90
28959;DHT22;16066;0.000;0.000;2022-07-17T00:28:14;21.50;43.00
28959;DHT22;16066;0.000;0.000;2022-07-17T00:30:40;21.40;42.90
28959;DHT22;16066;0.000;0.000;2022-07-17T00:33:06;21.40;43.00
28959;DHT22;16066;0.000;0.000;2022-07-17T00:35:32;21.40;43.00
28959;DHT22;16066;0.000;0.000;2022-07-17T00:37:57;21.40;43.10
28959;DHT22;16066;0.000;0.000;2022-07-17T00:40:23;21.40;43.10
28959;DHT22;16066;0.000;0.000;2022-07-17T00:42:51;21.40;43.20
28959;DHT22;16066;0.000;0.000;2022-07-17T00:45:17;21.30;43.20
28959;DHT22;16066;0.000;0.000;2022-07-17T00:47:56;21.30;43.30
28959;DHT22;16066;0.000;0.000;2022-07-17T00:50:27;21.30;43.40
28959;DHT22;16066;0.000;0.000;2022-07-17T00:52:53;21.30;43.40
28959;DHT22;16066;0.000;0.000;2022-07-17T00:55:19;21.30;43.40
28959;DHT22;16066;0.000;0.000;2022-07-17T00:57:47;21.20;43.40
28959;DHT22;16066;0.000;0.000;2022-07-17T01:00:14;21.20;44.10
28959;DHT22;16066;0.000;0.000;2022-07-17T01:02:40;21.20;43.50
28959;DHT22;16066;0.000;0.000;2022-07-17T01:05:06;21.20;43.50
28959;DHT22;16066;0.000;0.000;2022-07-17T01:07:33;21.20;43.50
28959;DHT22;16066;0.000;0.000;2022-07-17T01:09:58;21.10;43.50
28959;DHT22;16066;0.000;0.000;2022-07-17T01:12:24;21.10;43.50
28959;DHT22;16066;0.000;0.000;2022-07-17T01:14:52;21.10;43.50
28959;DHT22;16066;0.000;0.000;2022-07-17T01:17:17;21.10;43.60
28959;DHT22;16066;0.000;0.000;2022-07-17T01:19:43;21.10;43.60
28959;DHT22;16066;0.000;0.000;2022-07-17T01:22:09;21.10;43.70
28959;DHT22;16066;0.000;0.000;2022-07-17T01:24:39;21.00;43.70
28959;DHT22;16066;0.000;0.000;2022-07-17T01:27:04;21.00;43.70
28959;DHT22;16066;0.000;0.000;2022-07-17T01:29:30;21.00;43.90
28959;DHT22;16066;0.000;0.000;2022-07-17T01:31:55;21.00;43.90
28959;DHT22;16066;0.000;0.000;2022-07-17T01:34:21;21.00;44.00
28959;DHT22;16066;0.000;0.000;2022-07-17T01:36:46;21.00;44.00
28959;DHT22;16066;0.000;0.000;2022-07-17T01:39:12;20.90;43.90
28959;DHT22;16066;0.000;0.000;2022-07-17T01:41:38;20.90;44.10
28959;DHT22;16066;0.000;0.000;2022-07-17T01:44:04;20.90;44.20
28959;DHT22;16066;0.000;0.000;2022-07-17T01:46:30;20.90;44.20
28959;DHT22;16066;0.000;0.000;2022-07-17T01:48:55;20.80;44.10
28959;DHT22;16066;0.000;0.000;2022-07-17T01:51:21;20.80;44.30
28959;DHT22;16066;0.000;0.000;2022-07-17T01:53:46;20.80;44.50
28959;DHT22;16066;0.000;0.000;2022-07-17T01:56:12;20.70;44.60
28959;DHT22;16066;0.000;0.000;2022-07-17T01:58:38;20.70;44.70
28959;DHT22;16066;0.000;0.000;2022-07-17T02:01:03;20.70;44.60
28959;DHT22;16066;0.000;0.000;2022-07-17T02:03:29;20.70;44.70
28959;DHT22;16066;0.000;0.000;2022-07-17T02:05:54;20.60;44.70
28959;DHT22;16066;0.000;0.000;2022-07-17T02:08:20;20.60;44.80
28959;DHT22;16066;0.000;0.000;2022-07-17T02:10:46;20.50;44.80
28959;DHT22;16066;0.000;0.000;2022-07-17T02:13:11;20.50;44.90
28959;DHT22;16066;0.000;0.000;2022-07-17T02:15:37;20.50;44.90
28959;DHT22;16066;0.000;0.000;2022-07-17T02:18:03;20.50;44.80
28959;DHT22;16066;0.000;0.000;2022-07-17T02:20:29;20.50;44.80
28959;DHT22;16066;0.000;0.000;2022-07-17T02:22:54;20.50;44.80
28959;DHT22;16066;0.000;0.000;2022-07-17T02:25:20;20.50;45.00
28959;DHT22;16066;0.000;0.000;2022-07-17T02:27:45;20.50;45.00
28959;DHT22;16066;0.000;0.000;2022-07-17T02:30:14;20.50;44.90
28959;DHT22;16066;0.000;0.000;2022-07-17T02:32:40;20.50;44.90
28959;DHT22;16066;0.000;0.000;2022-07-17T02:35:08;20.40;44.90
28959;DHT22;16066;0.000;0.000;2022-07-17T02:37:34;20.40;45.10
28959;DHT22;16066;0.000;0.000;2022-07-17T02:39:59;20.40;45.00
28959;DHT22;16066;0.000;0.000;2022-07-17T02:42:27;20.40;45.00
28959;DHT22;16066;0.000;0.000;2022-07-17T02:44:54;20.40;44.90
28959;DHT22;16066;0.000;0.000;2022-07-17T02:47:25;20.40;44.90
28959;DHT22;16066;0.000;0.000;2022-07-17T02:49:51;20.40;45.00
28959;DHT22;16066;0.000;0.000;2022-07-17T02:52:18;20.40;45.00
28959;DHT22;16066;0.000;0.000;2022-07-17T02:54:43;20.30;45.10
28959;DHT22;16066;0.000;0.000;2022-07-17T02:57:09;20.20;45.20
28959;DHT22;16066;0.000;0.000;2022-07-17T02:59:35;20.20;45.30
28959;DHT22;16066;0.000;0.000;2022-07-17T03:02:00;20.20;45.30
28959;DHT22;16066;0.000;0.000;2022-07-17T03:04:26;20.20;45.30
28959;DHT22;16066;0.000;0.000;2022-07-17T03:06:52;20.20;45.30
28959;DHT22;16066;0.000;0.000;2022-07-17T03:09:17;20.20;45.20
28959;DHT22;16066;0.000;0.000;2022-07-17T03:11:43;20.20;45.10
28959;DHT22;16066;0.000;0.000;2022-07-17T03:14:09;20.30;45.10
28959;DHT22;16066;0.000;0.000;2022-07-17T03:16:34;20.30;45.10
28959;DHT22;16066;0.000;0.000;2022-07-17T03:19:00;20.30;45.00
28959;DHT22;16066;0.000;0.000;2022-07-17T03:21:25;20.30;44.90
28959;DHT22;16066;0.000;0.000;2022-07-17T03:23:51;20.30;44.90
28959;DHT22;16066;0.000;0.000;2022-07-17T03:26:16;20.30;44.80
28959;DHT22;16066;0.000;0.000;2022-07-17T03:28:42;20.30;44.90
28959;DHT22;16066;0.000;0.000;2022-07-17T03:31:07;20.30;44.90
28959;DHT22;16066;0.000;0.000;2022-07-17T03:33:33;20.30;44.90
28959;DHT22;16066;0.000;0.000;2022-07-17T03:35:59;20.30;44.90
28959;DHT22;16066;0.000;0.000;2022-07-17T03:38:24;20.30;44.90
28959;DHT22;16066;0.000;0.000;2022-07-17T03:40:50;20.30;44.90
28959;DHT22;16066;0.000;0.000;2022-07-17T03:43:15;20.20;44.90
28959;DHT22;16066;0.000;0.000;2022-07-17T03:45:41;20.20;45.10
28959;DHT22;16066;0.000;0.000;2022-07-17T03:48:07;20.20;45.10
28959;DHT22;16066;0.000;0.000;2022-07-17T03:50:32;20.20;45.10
28959;DHT22;16066;0.000;0.000;2022-07-17T03:52:58;20.20;45.80
28959;DHT22;16066;0.000;0.000;2022-07-17T03:55:23;20.20;45.20
28959;DHT22;16066;0.000;0.000;2022-07-17T03:57:49;20.10;45.20
28959;DHT22;16066;0.000;0.000;2022-07-17T04:00:15;20.10;45.10
28959;DHT22;16066;0.000;0.000;2022-07-17T04:02:40;20.10;45.10
28959;DHT22;16066;0.000;0.000;2022-07-17T04:05:07;20.20;45.20
28959;DHT22;16066;0.000;0.000;2022-07-17T04:07:40;20.10;45.10
28959;DHT22;16066;0.000;0.000;2022-07-17T04:10:07;20.10;45.10
28959;DHT22;16066;0.000;0.000;2022-07-17T04:12:33;20.10;45.10
28959;DHT22;16066;0.000;0.000;2022-07-17T04:14:58;20.10;45.20
28959;DHT22;16066;0.000;0.000;2022-07-17T04:17:25;20.00;45.30
28959;DHT22;16066;0.000;0.000;2022-07-17T04:19:51;19.90;45.40
28959;DHT22;16066;0.000;0.000;2022-07-17T04:22:17;19.90;45.50
28959;DHT22;16066;0.000;0.000;2022-07-17T04:24:42;19.90;45.40
28959;DHT22;16066;0.000;0.000;2022-07-17T04:27:09;20.00;45.30
28959;DHT22;16066;0.000;0.000;2022-07-17T04:29:35;20.00;45.10
28959;DHT22;16066;0.000;0.000;2022-07-17T04:32:01;20.00;45.00
28959;DHT22;16066;0.000;0.000;2022-07-17T04:34:26;20.00;44.90
28959;DHT22;16066;0.000;0.000;2022-07-17T04:36:52;20.10;44.80
28959;DHT22;16066;0.000;0.000;2022-07-17T04:39:17;20.10;44.90
28959;DHT22;16066;0.000;0.000;2022-07-17T04:41:43;20.10;44.90
28959;DHT22;16066;0.000;0.000;2022-07-17T04:44:08;20.10;45.00
28959;DHT22;16066;0.000;0.000;2022-07-17T04:46:34;20.10;45.00
28959;DHT22;16066;0.000;0.000;2022-07-17T04:49:00;20.10;45.00
28959;DHT22;16066;0.000;0.000;2022-07-17T04:51:25;20.10;45.00
28959;DHT22;16066;0.000;0.000;2022-07-17T04:53:51;20.10;45.20
28959;DHT22;16066;0.000;0.000;2022-07-17T04:56:16;20.00;45.20
28959;DHT22;16066;0.000;0.000;2022-07-17T04:58:42;20.00;45.30
28959;DHT22;16066;0.000;0.000;2022-07-17T05:01:07;20.00;45.30
28959;DHT22;16066;0.000;0.000;2022-07-17T05:03:33;20.00;45.30
28959;DHT22;16066;0.000;0.000;2022-07-17T05:05:58;20.00;45.80
28959;DHT22;16066;0.000;0.000;2022-07-17T05:08:24;20.10;45.20
28959;DHT22;16066;0.000;0.000;2022-07-17T05:10:49;20.10;45.20
28959;DHT22;16066;0.000;0.000;2022-07-17T05:13:15;20.10;45.10
28959;DHT22;16066;0.000;0.000;2022-07-17T05:15:40;20.10;45.00
28959;DHT22;16066;0.000;0.000;2022-07-17T05:18:06;20.10;45.00
28959;DHT22;16066;0.000;0.000;2022-07-17T05:20:32;20.10;44.90
28959;DHT22;16066;0.000;0.000;2022-07-17T05:22:57;20.20;45.00
28959;DHT22;16066;0.000;0.000;2022-07-17T05:25:24;20.20;44.90
28959;DHT22;16066;0.000;0.000;2022-07-17T05:27:50;20.20;45.00
28959;DHT22;16066;0.000;0.000;2022-07-17T05:30:16;20.20;44.90
28959;DHT22;16066;0.000;0.000;2022-07-17T05:32:41;20.10;44.80
28959;DHT22;16066;0.000;0.000;2022-07-17T05:35:07;20.20;45.00
28959;DHT22;16066;0.000;0.000;2022-07-17T05:37:33;20.20;45.20
28959;DHT22;16066;0.000;0.000;2022-07-17T05:39:59;20.20;45.40
28959;DHT22;16066;0.000;0.000;2022-07-17T05:42:24;20.20;45.40
28959;DHT22;16066;0.000;0.000;2022-07-17T05:44:49;20.30;45.50
28959;DHT22;16066;0.000;0.000;2022-07-17T05:47:15;20.30;45.40
28959;DHT22;16066;0.000;0.000;2022-07-17T05:49:41;20.30;45.30
28959;DHT22;16066;0.000;0.000;2022-07-17T05:52:06;20.30;45.20
28959;DHT22;16066;0.000;0.000;2022-07-17T05:54:32;20.30;45.10
28959;DHT22;16066;0.000;0.000;2022-07-17T05:56:59;20.40;45.20
28959;DHT22;16066;0.000;0.000;2022-07-17T05:59:24;20.40;45.20
28959;DHT22;16066;0.000;0.000;2022-07-17T06:01:50;20.40;45.20
28959;DHT22;16066;0.000;0.000;2022-07-17T06:04:15;20.40;45.10
28959;DHT22;16066;0.000;0.000;2022-07-17T06:06:41;20.40;45.10
28959;DHT22;16066;0.000;0.000;2022-07-17T06:09:06;20.40;45.20
28959;DHT22;16066;0.000;0.000;2022-07-17T06:11:32;20.40;45.20
28959;DHT22;16066;0.000;0.000;2022-07-17T06:13:57;20.40;45.10
28959;DHT22;16066;0.000;0.000;2022-07-17T06:16:23;20.40;45.00
28959;DHT22;16066;0.000;0.000;2022-07-17T06:18:49;20.40;44.80
28959;DHT22;16066;0.000;0.000;2022-07-17T06:21:14;20.40;44.80
28959;DHT22;16066;0.000;0.000;2022-07-17T06:23:39;20.40;44.70
28959;DHT22;16066;0.000;0.000;2022-07-17T06:26:05;20.40;44.60
28959;DHT22;16066;0.000;0.000;2022-07-17T06:28:31;20.40;44.50
28959;DHT22;16066;0.000;0.000;2022-07-17T06:30:56;20.40;44.60
28959;DHT22;16066;0.000;0.000;2022-07-17T06:33:22;20.40;44.60
28959;DHT22;16066;0.000;0.000;2022-07-17T06:35:47;20.40;44.80
28959;DHT22;16066;0.000;0.000;2022-07-17T06:38:13;20.40;44.80
28959;DHT22;16066;0.000;0.000;2022-07-17T06:40:39;20.50;44.80
28959;DHT22;16066;0.000;0.000;2022-07-17T06:43:05;20.50;44.80
28959;DHT22;16066;0.000;0.000;2022-07-17T06:45:31;20.50;44.80
28959;DHT22;16066;0.000;0.000;2022-07-17T06:47:57;20.50;45.10
28959;DHT22;16066;0.000;0.000;2022-07-17T06:50:22;20.40;45.10
28959;DHT22;16066;0.000;0.000;2022-07-17T06:52:48;20.40;45.20
28959;DHT22;16066;0.000;0.000;2022-07-17T06:55:13;20.50;45.20
28959;DHT22;16066;0.000;0.000;2022-07-17T06:57:39;20.50;45.30
28959;DHT22;16066;0.000;0.000;2022-07-17T07:00:05;20.40;45.40
28959;DHT22;16066;0.000;0.000;2022-07-17T07:02:31;20.40;45.30
28959;DHT22;16066;0.000;0.000;2022-07-17T07:04:56;20.50;45.40
28959;DHT22;16066;0.000;0.000;2022-07-17T07:07:22;20.50;45.40
28959;DHT22;16066;0.000;0.000;2022-07-17T07:09:47;20.60;45.30
28959;DHT22;16066;0.000;0.000;2022-07-17T07:12:13;20.60;45.10
28959;DHT22;16066;0.000;0.000;2022-07-17T07:14:38;20.50;44.70
28959;DHT22;16066;0.000;0.000;2022-07-17T07:17:04;20.50;44.70
28959;DHT22;16066;0.000;0.000;2022-07-17T07:19:30;20.50;44.70
28959;DHT22;16066;0.000;0.000;2022-07-17T07:21:56;20.60;44.90
28959;DHT22;16066;0.000;0.000;2022-07-17T07:24:22;20.60;44.90
28959;DHT22;16066;0.000;0.000;2022-07-17T07:26:48;20.60;44.60
28959;DHT22;16066;0.000;0.000;2022-07-17T07:29:13;20.70;44.70
28959;DHT22;16066;0.000;0.000;2022-07-17T07:31:39;20.70;44.60
28959;DHT22;16066;0.000;0.000;2022-07-17T07:34:04;20.80;44.40
28959;DHT22;16066;0.000;0.000;2022-07-17T07:36:30;20.80;44.30
28959;DHT22;16066;0.000;0.000;2022-07-17T07:38:56;20.90;44.10
28959;DHT22;16066;0.000;0.000;2022-07-17T07:41:21;20.90;43.60
28959;DHT22;16066;0.000;0.000;2022-07-17T07:43:47;20.90;43.50
28959;DHT22;16066;0.000;0.000;2022-07-17T07:46:12;21.00;43.40
28959;DHT22;16066;0.000;0.000;2022-07-17T07:48:38;21.00;43.50
28959;DHT22;16066;0.000;0.000;2022-07-17T07:51:04;21.00;43.40
28959;DHT22;16066;0.000;0.000;2022-07-17T07:53:29;21.00;43.20
28959;DHT22;16066;0.000;0.000;2022-07-17T07:55:55;21.00;42.90
28959;DHT22;16066;0.000;0.000;2022-07-17T07:58:21;21.00;42.90
28959;DHT22;16066;0.000;0.000;2022-07-17T08:00:46;21.00;42.90
28959;DHT22;16066;0.000;0.000;2022-07-17T08:03:12;21.00;42.60
28959;DHT22;16066;0.000;0.000;2022-07-17T08:05:38;21.00;42.30
28959;DHT22;16066;0.000;0.000;2022-07-17T08:08:04;21.00;42.50
28959;DHT22;16066;0.000;0.000;2022-07-17T08:10:30;21.00;42.20
28959;DHT22;16066;0.000;0.000;2022-07-17T08:12:55;21.00;42.40
28959;DHT22;16066;0.000;0.000;2022-07-17T08:15:22;21.00;42.40
28959;DHT22;16066;0.000;0.000;2022-07-17T08:17:50;21.00;42.40
28959;DHT22;16066;0.000;0.000;2022-07-17T08:20:16;21.00;42.70
28959;DHT22;16066;0.000;0.000;2022-07-17T08:22:43;21.10;42.80
28959;DHT22;16066;0.000;0.000;2022-07-17T08:25:09;21.10;42.90
28959;DHT22;16066;0.000;0.000;2022-07-17T08:27:39;21.10;42.90
28959;DHT22;16066;0.000;0.000;2022-07-17T08:30:06;21.20;42.70
28959;DHT22;16066;0.000;0.000;2022-07-17T08:32:32;21.20;42.30
28959;DHT22;16066;0.000;0.000;2022-07-17T08:34:58;21.20;42.60
28959;DHT22;16066;0.000;0.000;2022-07-17T08:37:23;21.20;42.50
28959;DHT22;16066;0.000;0.000;2022-07-17T08:39:50;21.20;42.50
28959;DHT22;16066;0.000;0.000;2022-07-17T08:42:15;21.20;42.20
28959;DHT22;16066;0.000;0.000;2022-07-17T08:44:45;21.30;42.40
28959;DHT22;16066;0.000;0.000;2022-07-17T08:47:12;21.30;42.50
28959;DHT22;16066;0.000;0.000;2022-07-17T08:49:43;21.30;42.50
28959;DHT22;16066;0.000;0.000;2022-07-17T08:52:10;21.30;42.40
28959;DHT22;16066;0.000;0.000;2022-07-17T08:54:36;21.30;42.30
28959;DHT22;16066;0.000;0.000;2022-07-17T08:57:02;21.40;42.30
28959;DHT22;16066;0.000;0.000;2022-07-17T08:59:28;21.40;42.40
28959;DHT22;16066;0.000;0.000;2022-07-17T09:01:53;21.40;42.40
28959;DHT22;16066;0.000;0.000;2022-07-17T09:04:19;21.40;42.20
28959;DHT22;16066;0.000;0.000;2022-07-17T09:06:44;21.50;41.50
28959;DHT22;16066;0.000;0.000;2022-07-17T09:09:12;21.50;41.60
28959;DHT22;16066;0.000;0.000;2022-07-17T09:11:57;21.50;41.40
28959;DHT22;16066;0.000;0.000;2022-07-17T09:14:41;21.50;41.40
28959;DHT22;16066;0.000;0.000;2022-07-17T09:17:09;21.50;41.00
28959;DHT22;16066;0.000;0.000;2022-07-17T09:19:41;21.50;40.70
28959;DHT22;16066;0.000;0.000;2022-07-17T09:22:22;21.50;40.90
28959;DHT22;16066;0.000;0.000;2022-07-17T09:24:53;21.50;41.40
28959;DHT22;16066;0.000;0.000;2022-07-17T09:27:31;21.60;41.50
28959;DHT22;16066;0.000;0.000;2022-07-17T09:30:07;21.60;41.50
28959;DHT22;16066;0.000;0.000;2022-07-17T09:32:40;21.60;41.60
28959;DHT22;16066;0.000;0.000;2022-07-17T09:35:08;21.60;41.60
28959;DHT22;16066;0.000;0.000;2022-07-17T09:37:35;21.60;41.60
28959;DHT22;16066;0.000;0.000;2022-07-17T09:40:02;21.60;41.90
28959;DHT22;16066;0.000;0.000;2022-07-17T09:42:33;21.60;42.10
28959;DHT22;16066;0.000;0.000;2022-07-17T09:45:01;21.60;42.40
28959;DHT22;16066;0.000;0.000;2022-07-17T09:47:28;21.70;42.40
28959;DHT22;16066;0.000;0.000;2022-07-17T09:49:54;21.70;42.20
28959;DHT22;16066;0.000;0.000;2022-07-17T09:52:28;21.70;42.00
28959;DHT22;16066;0.000;0.000;2022-07-17T09:54:58;21.80;41.90
28959;DHT22;16066;0.000;0.000;2022-07-17T09:57:29;21.80;41.50
28959;DHT22;16066;0.000;0.000;2022-07-17T09:59:58;21.80;41.40
28959;DHT22;16066;0.000;0.000;2022-07-17T10:02:24;21.80;41.50
28959;DHT22;16066;0.000;0.000;2022-07-17T10:04:51;21.80;42.00
28959;DHT22;16066;0.000;0.000;2022-07-17T10:07:17;21.80;42.00
28959;DHT22;16066;0.000;0.000;2022-07-17T10:09:44;21.90;42.20
28959;DHT22;16066;0.000;0.000;2022-07-17T10:12:10;21.90;42.30
28959;DHT22;16066;0.000;0.000;2022-07-17T10:14:36;21.90;42.20
28959;DHT22;16066;0.000;0.000;2022-07-17T10:17:12;21.90;42.20
28959;DHT22;16066;0.000;0.000;2022-07-17T10:19:53;21.90;42.20
28959;DHT22;16066;0.000;0.000;2022-07-17T10:22:19;22.00;42.40
28959;DHT22;16066;0.000;0.000;2022-07-17T10:24:53;22.00;42.30
28959;DHT22;16066;0.000;0.000;2022-07-17T10:27:29;22.00;42.20
28959;DHT22;16066;0.000;0.000;2022-07-17T10:30:05;22.00;42.20
28959;DHT22;16066;0.000;0.000;2022-07-17T10:32:31;22.00;42.30
28959;DHT22;16066;0.000;0.000;2022-07-17T10:35:06;22.10;42.30
28959;DHT22;16066;0.000;0.000;2022-07-17T10:40:21;22.10;42.30
28959;DHT22;16066;0.000;0.000;2022-07-17T10:42:56;22.10;42.30
28959;DHT22;16066;0.000;0.000;2022-07-17T10:45:24;22.20;42.30
28959;DHT22;16066;0.000;0.000;2022-07-17T10:47:53;22.20;42.30
28959;DHT22;16066;0.000;0.000;2022-07-17T10:50:26;22.20;42.80
28959;DHT22;16066;0.000;0.000;2022-07-17T10:52:59;22.20;42.20
28959;DHT22;16066;0.000;0.000;2022-07-17T10:55:25;22.30;42.20
28959;DHT22;16066;0.000;0.000;2022-07-17T10:57:50;22.30;42.10
28959;DHT22;16066;0.000;0.000;2022-07-17T11:00:16;22.30;42.10
28959;DHT22;16066;0.000;0.000;2022-07-17T11:02:43;22.30;42.20
28959;DHT22;16066;0.000;0.000;2022-07-17T11:05:10;22.30;42.20
28959;DHT22;16066;0.000;0.000;2022-07-17T11:07:48;22.30;42.10
28959;DHT22;16066;0.000;0.000;2022-07-17T11:10:14;22.40;42.10
28959;DHT22;16066;0.000;0.000;2022-07-17T11:12:39;22.40;42.10
28959;DHT22;16066;0.000;0.000;2022-07-17T11:15:06;22.40;42.00
28959;DHT22;16066;0.000;0.000;2022-07-17T11:17:32;22.40;42.00
28959;DHT22;16066;0.000;0.000;2022-07-17T11:20:02;22.40;42.00
28959;DHT22;16066;0.000;0.000;2022-07-17T11:22:28;22.50;42.00
28959;DHT22;16066;0.000;0.000;2022-07-17T11:24:53;22.50;41.90
28959;DHT22;16066;0.000;0.000;2022-07-17T11:27:25;22.50;41.90
28959;DHT22;16066;0.000;0.000;2022-07-17T11:29:55;22.50;41.70
28959;DHT22;16066;0.000;0.000;2022-07-17T11:32:21;22.50;41.80
28959;DHT22;16066;0.000;0.000;2022-07-17T11:34:47;22.50;41.70
28959;DHT22;16066;0.000;0.000;2022-07-17T11:37:14;22.50;41.80
28959;DHT22;16066;0.000;0.000;2022-07-17T11:39:45;22.50;41.70
28959;DHT22;16066;0.000;0.000;2022-07-17T11:42:20;22.60;41.80
28959;DHT22;16066;0.000;0.000;2022-07-17T11:44:49;22.60;41.80
28959;DHT22;16066;0.000;0.000;2022-07-17T11:47:23;22.60;41.70
28959;DHT22;16066;0.000;0.000;2022-07-17T11:49:49;22.60;42.10
28959;DHT22;16066;0.000;0.000;2022-07-17T11:52:16;22.70;41.40
28959;DHT22;16066;0.000;0.000;2022-07-17T11:54:53;22.70;41.20
28959;DHT22;16066;0.000;0.000;2022-07-17T11:57:20;22.70;41.20
28959;DHT22;16066;0.000;0.000;2022-07-17T11:59:47;22.70;41.20
28959;DHT22;16066;0.000;0.000;2022-07-17T12:02:18;22.80;41.20
28959;DHT22;16066;0.000;0.000;2022-07-17T12:04:55;22.80;41.30
28959;DHT22;16066;0.000;0.000;2022-07-17T12:07:22;22.80;41.30
28959;DHT22;16066;0.000;0.000;2022-07-17T12:09:48;22.80;41.60
28959;DHT22;16066;0.000;0.000;2022-07-17T12:12:21;22.80;41.60
28959;DHT22;16066;0.000;0.000;2022-07-17T12:14:57;22.90;41.00
28959;DHT22;16066;0.000;0.000;2022-07-17T12:17:24;22.90;41.10
28959;DHT22;16066;0.000;0.000;2022-07-17T12:19:51;22.90;40.90
28959;DHT22;16066;0.000;0.000;2022-07-17T12:22:16;23.00;41.00
28959;DHT22;16066;0.000;0.000;2022-07-17T12:24:44;23.10;41.10
28959;DHT22;16066;0.000;0.000;2022-07-17T12:27:14;23.10;40.70
28959;DHT22;16066;0.000;0.000;2022-07-17T12:29:41;23.20;40.80
28959;DHT22;16066;0.000;0.000;2022-07-17T12:32:07;23.30;40.80
28959;DHT22;16066;0.000;0.000;2022-07-17T12:34:35;23.30;40.70
28959;DHT22;16066;0.000;0.000;2022-07-17T12:37:01;23.30;40.40
28959;DHT22;16066;0.000;0.000;2022-07-17T12:39:27;23.40;40.10
28959;DHT22;16066;0.000;0.000;2022-07-17T12:41:53;23.40;40.10
28959;DHT22;16066;0.000;0.000;2022-07-17T12:44:18;23.40;39.70
28959;DHT22;16066;0.000;0.000;2022-07-17T12:46:44;23.50;39.80
28959;DHT22;16066;0.000;0.000;2022-07-17T12:49:09;23.50;39.80
28959;DHT22;16066;0.000;0.000;2022-07-17T12:51:35;23.50;40.10
28959;DHT22;16066;0.000;0.000;2022-07-17T12:54:01;23.60;40.30
28959;DHT22;16066;0.000;0.000;2022-07-17T12:56:27;23.60;40.30
28959;DHT22;16066;0.000;0.000;2022-07-17T12:58:53;23.70;40.20
28959;DHT22;16066;0.000;0.000;2022-07-17T13:01:18;23.70;40.10
28959;DHT22;16066;0.000;0.000;2022-07-17T13:03:44;23.70;40.10
28959;DHT22;16066;0.000;0.000;2022-07-17T13:06:10;23.70;40.20
28959;DHT22;16066;0.000;0.000;2022-07-17T13:08:36;23.80;40.20
28959;DHT22;16066;0.000;0.000;2022-07-17T13:11:03;23.80;40.10
28959;DHT22;16066;0.000;0.000;2022-07-17T13:13:30;23.80;40.00
28959;DHT22;16066;0.000;0.000;2022-07-17T13:15:56;23.80;39.90
28959;DHT22;16066;0.000;0.000;2022-07-17T13:18:22;23.80;39.90
28959;DHT22;16066;0.000;0.000;2022-07-17T13:20:48;23.80;39.60
28959;DHT22;16066;0.000;0.000;2022-07-17T13:23:14;23.80;39.60
28959;DHT22;16066;0.000;0.000;2022-07-17T13:25:41;23.80;39.50
28959;DHT22;16066;0.000;0.000;2022-07-17T13:28:08;23.80;39.40
28959;DHT22;16066;0.000;0.000;2022-07-17T13:30:34;23.80;39.10
28959;DHT22;16066;0.000;0.000;2022-07-17T13:33:00;23.80;39.10
28959;DHT22;16066;0.000;0.000;2022-07-17T13:35:26;23.90;38.60
28959;DHT22;16066;0.000;0.000;2022-07-17T13:37:52;23.90;39.10
28959;DHT22;16066;0.000;0.000;2022-07-17T13:40:17;23.90;38.90
28959;DHT22;16066;0.000;0.000;2022-07-17T13:42:45;23.90;38.70
28959;DHT22;16066;0.000;0.000;2022-07-17T13:45:10;23.90;38.40
28959;DHT22;16066;0.000;0.000;2022-07-17T13:47:36;23.90;39.00
28959;DHT22;16066;0.000;0.000;2022-07-17T13:50:03;23.80;38.80
28959;DHT22;16066;0.000;0.000;2022-07-17T13:52:29;23.80;38.70
28959;DHT22;16066;0.000;0.000;2022-07-17T13:54:55;23.80;38.70
28959;DHT22;16066;0.000;0.000;2022-07-17T13:57:21;23.80;38.80
28959;DHT22;16066;0.000;0.000;2022-07-17T13:59:47;23.80;39.00
28959;DHT22;16066;0.000;0.000;2022-07-17T14:02:12;23.80;38.80
28959;DHT22;16066;0.000;0.000;2022-07-17T14:04:38;23.80;38.80
28959;DHT22;16066;0.000;0.000;2022-07-17T14:07:04;23.80;38.90
28959;DHT22;16066;0.000;0.000;2022-07-17T14:09:29;23.90;39.10
28959;DHT22;16066;0.000;0.000;2022-07-17T14:11:55;23.90;38.90
28959;DHT22;16066;0.000;0.000;2022-07-17T14:14:20;23.90;38.90
28959;DHT22;16066;0.000;0.000;2022-07-17T14:16:46;23.90;38.70
28959;DHT22;16066;0.000;0.000;2022-07-17T14:19:11;24.00;38.00
28959;DHT22;16066;0.000;0.000;2022-07-17T14:21:37;24.00;37.50
28959;DHT22;16066;0.000;0.000;2022-07-17T14:24:06;24.00;37.20
28959;DHT22;16066;0.000;0.000;2022-07-17T14:26:32;24.00;37.20
28959;DHT22;16066;0.000;0.000;2022-07-17T14:28:59;24.10;37.40
28959;DHT22;16066;0.000;0.000;2022-07-17T14:31:24;24.10;37.50
28959;DHT22;16066;0.000;0.000;2022-07-17T14:33:50;24.10;37.60
28959;DHT22;16066;0.000;0.000;2022-07-17T14:36:16;24.20;37.70
28959;DHT22;16066;0.000;0.000;2022-07-17T14:38:42;24.20;37.10
28959;DHT22;16066;0.000;0.000;2022-07-17T14:41:07;24.30;37.50
28959;DHT22;16066;0.000;0.000;2022-07-17T14:43:33;24.40;36.50
28959;DHT22;16066;0.000;0.000;2022-07-17T14:45:58;24.50;35.70
28959;DHT22;16066;0.000;0.000;2022-07-17T14:48:24;24.70;35.80
28959;DHT22;16066;0.000;0.000;2022-07-17T14:50:50;25.00;35.50
28959;DHT22;16066;0.000;0.000;2022-07-17T14:53:15;25.20;35.00
28959;DHT22;16066;0.000;0.000;2022-07-17T14:55:41;25.40;34.70
28959;DHT22;16066;0.000;0.000;2022-07-17T14:58:07;25.50;34.30
28959;DHT22;16066;0.000;0.000;2022-07-17T15:00:33;25.70;34.30
28959;DHT22;16066;0.000;0.000;2022-07-17T15:02:58;25.80;33.90
28959;DHT22;16066;0.000;0.000;2022-07-17T15:05:24;25.90;34.10
28959;DHT22;16066;0.000;0.000;2022-07-17T15:07:50;26.00;34.10
28959;DHT22;16066;0.000;0.000;2022-07-17T15:10:16;26.10;34.00
28959;DHT22;16066;0.000;0.000;2022-07-17T15:12:42;26.20;34.10
28959;DHT22;16066;0.000;0.000;2022-07-17T15:15:08;26.30;33.70
28959;DHT22;16066;0.000;0.000;2022-07-17T15:17:34;26.20;33.50
28959;DHT22;16066;0.000;0.000;2022-07-17T15:19:59;26.20;33.70
28959;DHT22;16066;0.000;0.000;2022-07-17T15:22:25;26.20;34.00
28959;DHT22;16066;0.000;0.000;2022-07-17T15:24:50;26.30;33.90
28959;DHT22;16066;0.000;0.000;2022-07-17T15:27:16;26.30;33.40
28959;DHT22;16066;0.000;0.000;2022-07-17T15:29:42;26.40;33.40
28959;DHT22;16066;0.000;0.000;2022-07-17T15:32:07;26.40;33.10
28959;DHT22;16066;0.000;0.000;2022-07-17T15:34:33;26.40;33.40
28959;DHT22;16066;0.000;0.000;2022-07-17T15:36:59;26.40;33.10
28959;DHT22;16066;0.000;0.000;2022-07-17T15:39:24;26.40;33.40
28959;DHT22;16066;0.000;0.000;2022-07-17T15:41:50;26.40;33.50
28959;DHT22;16066;0.000;0.000;2022-07-17T15:44:15;26.40;33.70